Time;durP1;ratioP1;P1;durP2;ratioP2;P2;SDS_P1;SDS_P2;PMS_P1;PMS_P2;Temp;Humidity;BMP_temperature;BMP_pressure;BME280_temperature;BME280_humidity;BME280_pressure;Samples;Min_cycle;Max_cycle;Signal;HPM_P1;HPM_P2
2022/07/03 17:26:59;;;;;;;7.90;2.22;;;;;;;32.82;24.10;99739.84;8430291;27;20083;-84
2022/07/03 17:31:17;;;;;;;3.22;2.22;;;;;;;32.93;24.31;99734.84;7669543;32;37359;-86
2022/07/03 17:35:44;;;;;;;4.18;2.20;;;;;;;33.07;24.78;99733.81;7669969;32;39309;-86
2022/07/03 17:40:01;;;;;;;4.78;1.92;;;;;;;33.09;24.59;99737.00;7682491;32;39310;-85
2022/07/03 17:44:18;;;;;;;4.60;2.45;;;;;;;32.87;24.92;99736.53;7682690;32;38681;-85
2022/07/03 17:48:37;;;;;;;4.00;2.08;;;;;;;32.62;25.75;99737.69;7672055;32;37065;-85
2022/07/03 17:52:53;;;;;;;5.75;2.03;;;;;;;32.54;26.23;99734.13;7681958;32;39224;-84
2022/07/03 18:01:46;;;;;;;4.43;2.25;;;;;;;32.74;25.81;99734.28;7684994;32;37722;-82
2022/07/03 18:06:05;;;;;;;4.93;2.37;;;;;;;32.50;25.97;99733.38;7684017;32;37898;-84
2022/07/03 18:10:24;;;;;;;7.72;2.30;;;;;;;32.45;26.11;99731.03;7668115;32;40120;-86
2022/07/03 18:15:08;;;;;;;4.28;2.20;;;;;;;32.46;26.27;99723.38;7678996;32;40148;-84
2022/07/03 18:19:26;;;;;;;4.40;2.15;;;;;;;32.37;26.86;99733.16;7673387;32;38701;-83
2022/07/03 18:23:51;;;;;;;7.80;2.40;;;;;;;32.22;27.10;99725.28;7681641;32;37071;-81
2022/07/03 18:28:09;;;;;;;11.30;2.42;;;;;;;32.11;27.08;99731.84;7677671;32;39301;-84
2022/07/03 18:32:26;;;;;;;6.05;2.70;;;;;;;32.15;27.32;99734.63;7681843;32;38775;-84
2022/07/03 18:36:43;;;;;;;5.43;2.70;;;;;;;32.14;27.21;99736.66;7683697;32;37814;-85
2022/07/03 18:40:59;;;;;;;5.18;2.15;;;;;;;31.92;27.56;99740.91;7668557;32;37031;-86
2022/07/03 18:45:17;;;;;;;4.53;2.15;;;;;;;31.71;28.07;99739.91;7675330;32;39338;-86
2022/07/03 18:49:35;;;;;;;4.87;2.50;;;;;;;31.67;28.14;99747.59;7671529;32;39966;-86
2022/07/03 18:54:09;;;;;;;5.15;2.80;;;;;;;31.37;28.76;99753.84;7683187;32;38206;-86
2022/07/03 18:58:40;;;;;;;8.57;3.08;;;;;;;31.16;29.37;99755.63;7680834;32;37949;-85
2022/07/03 19:02:58;;;;;;;6.55;2.37;;;;;;;30.99;30.48;99753.72;7682170;32;39377;-84
2022/07/03 19:07:24;;;;;;;12.68;2.75;;;;;;;30.71;30.99;99755.47;7682309;32;40742;-87
2022/07/03 19:11:48;;;;;;;7.50;2.50;;;;;;;30.57;31.19;99767.59;7667991;32;37963;-84
2022/07/03 19:16:05;;;;;;;5.30;2.80;;;;;;;30.49;31.20;99766.84;7662382;32;37007;-85
2022/07/03 19:20:21;;;;;;;3.12;2.45;;;;;;;30.29;31.43;99771.31;7664947;32;40134;-87
2022/07/03 19:24:37;;;;;;;3.87;2.35;;;;;;;30.03;31.08;99773.41;7684192;32;40735;-77
2022/07/03 19:28:53;;;;;;;7.10;2.65;;;;;;;29.92;31.30;99781.81;7666832;32;37803;-79
2022/07/03 19:33:10;;;;;;;16.40;2.90;;;;;;;29.86;31.48;99779.84;7671375;32;37245;-80
2022/07/03 19:37:26;;;;;;;10.90;2.50;;;;;;;29.64;31.73;99784.66;7672837;32;39448;-82
2022/07/03 19:41:42;;;;;;;7.50;2.28;;;;;;;29.61;31.29;99780.63;7674696;32;39471;-80
2022/07/03 19:45:58;;;;;;;8.32;2.72;;;;;;;29.52;31.10;99789.47;7674400;32;37862;-83
2022/07/03 19:50:14;;;;;;;3.17;2.70;;;;;;;29.42;31.29;99793.06;7678919;32;37036;-82
2022/07/03 19:54:31;;;;;;;5.07;2.42;;;;;;;29.34;31.53;99786.66;7671792;32;40186;-85
2022/07/03 19:58:47;;;;;;;5.75;2.17;;;;;;;29.36;31.19;99792.66;7684548;32;39924;-84
2022/07/03 20:03:03;;;;;;;6.70;2.20;;;;;;;29.29;31.36;99789.06;7684466;32;37734;-84
2022/07/03 20:07:19;;;;;;;4.75;2.10;;;;;;;29.17;31.85;99796.66;7684268;32;37814;-84
2022/07/03 20:11:35;;;;;;;6.97;2.37;;;;;;;29.08;31.97;99796.22;7679045;32;39273;-85
2022/07/03 20:15:51;;;;;;;2.72;2.40;;;;;;;28.92;32.54;99790.16;7679860;32;40048;-80
2022/07/03 20:20:09;;;;;;;3.33;2.15;;;;;;;28.81;33.14;99790.91;7657532;32;37968;-81
2022/07/03 20:24:31;;;;;;;7.30;2.70;;;;;;;28.68;33.64;99798.06;7658407;32;37287;-81
2022/07/03 20:28:47;;;;;;;6.10;2.67;;;;;;;28.46;33.99;99803.59;7678807;32;39420;-82
2022/07/03 20:33:05;;;;;;;4.25;2.20;;;;;;;28.40;34.06;99788.31;7657440;32;40858;-80
2022/07/03 20:37:21;;;;;;;17.75;3.00;;;;;;;28.25;34.30;99792.25;7657279;32;37901;-80
2022/07/03 20:41:38;;;;;;;6.15;2.65;;;;;;;28.17;34.71;99796.22;7657173;32;37264;-79
2022/07/03 20:45:54;;;;;;;3.33;2.50;;;;;;;28.02;35.16;99789.72;7657197;32;39380;-80
2022/07/03 20:50:10;;;;;;;4.50;2.45;;;;;;;27.95;35.05;99796.06;7657200;32;39857;-80
2022/07/03 20:54:27;;;;;;;19.50;2.92;;;;;;;27.75;35.06;99803.09;7657105;32;37725;-81
2022/07/03 20:58:43;;;;;;;7.57;2.55;;;;;;;27.58;35.36;99805.38;7657010;32;36936;-81
2022/07/03 21:03:00;;;;;;;5.80;2.58;;;;;;;27.32;36.10;99812.75;7656889;32;39436;-81
2022/07/03 21:07:17;;;;;;;4.32;2.15;;;;;;;27.20;36.59;99807.41;7670988;32;40115;-80
2022/07/03 21:11:34;;;;;;;7.97;2.87;;;;;;;27.08;36.76;99804.84;7671388;32;38615;-80
2022/07/03 21:15:51;;;;;;;5.95;2.53;;;;;;;27.02;36.97;99806.41;7663878;32;36777;-80
2022/07/03 21:20:07;;;;;;;7.00;2.42;;;;;;;26.84;37.36;99812.59;7659259;32;39126;-79
2022/07/03 21:24:23;;;;;;;5.18;2.50;;;;;;;26.76;37.63;99817.28;7660075;32;41517;-79
2022/07/03 21:28:48;;;;;;;5.15;2.67;;;;;;;26.75;37.78;99817.66;7683870;32;38020;-80
2022/07/03 21:33:04;;;;;;;5.75;2.60;;;;;;;26.79;37.69;99822.12;7675099;32;37751;-80
2022/07/03 21:37:20;;;;;;;3.70;2.70;;;;;;;26.73;37.52;99811.66;7680270;32;39320;-82
2022/07/03 21:41:37;;;;;;;7.62;2.58;;;;;;;26.58;38.34;99819.06;7676672;32;39717;-77
2022/07/03 21:45:53;;;;;;;5.30;2.60;;;;;;;26.43;38.83;99810.47;7670614;32;38006;-77
2022/07/03 21:50:09;;;;;;;4.00;2.70;;;;;;;26.35;38.96;99808.75;7659703;32;37241;-77
2022/07/03 21:54:26;;;;;;;9.82;2.75;;;;;;;26.36;38.62;99806.78;7659727;32;39402;-77
2022/07/03 21:58:42;;;;;;;7.05;2.62;;;;;;;26.15;38.79;99796.91;7666485;32;40895;-77
2022/07/03 22:02:58;;;;;;;5.75;2.30;;;;;;;26.20;38.38;99804.19;7660163;32;38905;-79
2022/07/03 22:07:14;;;;;;;9.32;2.75;;;;;;;26.16;38.37;99803.31;7670043;32;37866;-78
2022/07/03 22:11:30;;;;;;;3.28;2.40;;;;;;;26.09;38.22;99798.41;7685859;32;40101;-79
2022/07/03 22:15:47;;;;;;;3.65;2.35;;;;;;;26.07;38.31;99798.00;7685742;32;41162;-80
2022/07/03 22:20:04;;;;;;;6.93;2.90;;;;;;;25.97;38.59;99793.03;7685615;32;38564;-79
2022/07/03 22:24:20;;;;;;;6.70;3.03;;;;;;;26.04;38.38;99793.97;7684898;32;37038;-79
2022/07/03 22:28:36;;;;;;;4.50;2.72;;;;;;;25.73;39.28;99788.66;7657536;32;40192;-80
2022/07/03 22:32:52;;;;;;;5.68;2.55;;;;;;;25.78;39.20;99788.34;7657004;32;39534;-79
2022/07/03 22:37:08;;;;;;;4.82;2.85;;;;;;;25.62;40.00;99789.28;7681678;32;38642;-77
2022/07/03 22:41:24;;;;;;;8.52;2.90;;;;;;;25.63;40.01;99781.72;7682058;32;37044;-77
2022/07/03 22:45:41;;;;;;;3.65;2.47;;;;;;;25.36;40.71;99787.25;7683701;32;39390;-78
2022/07/03 22:49:57;;;;;;;6.25;2.62;;;;;;;25.26;41.06;99782.31;7680055;32;39829;-78
2022/07/03 22:54:13;;;;;;;4.05;2.53;;;;;;;25.30;41.27;99777.56;7658909;32;37780;-77
2022/07/03 22:58:29;;;;;;;11.05;3.25;;;;;;;25.14;41.96;99786.03;7658907;32;37774;-78
2022/07/03 23:02:45;;;;;;;4.87;2.62;;;;;;;25.04;42.28;99781.91;7658938;32;39227;-78
2022/07/03 23:07:02;;;;;;;4.12;2.80;;;;;;;25.11;42.22;99795.16;7658904;32;40032;-78
2022/07/03 23:11:19;;;;;;;6.25;2.92;;;;;;;25.03;42.33;99785.84;7645031;32;37945;-78
2022/07/03 23:15:35;;;;;;;4.12;2.55;;;;;;;24.77;42.96;99796.88;7658810;32;37126;-77
2022/07/03 23:19:51;;;;;;;12.23;2.85;;;;;;;24.84;42.81;99781.09;7661085;32;39967;-77
2022/07/03 23:24:07;;;;;;;4.53;3.20;;;;;;;24.79;42.86;99786.97;7663323;32;39707;-77
2022/07/03 23:28:23;;;;;;;6.43;2.75;;;;;;;24.87;42.81;99780.37;7659149;32;37833;-78
2022/07/03 23:32:39;;;;;;;8.20;3.30;;;;;;;24.80;43.09;99776.62;7658531;32;37812;-78
2022/07/03 23:36:55;;;;;;;9.25;3.10;;;;;;;24.86;43.15;99780.75;7658429;32;39295;-78
2022/07/03 23:41:11;;;;;;;5.55;3.20;;;;;;;24.64;43.68;99777.53;7657984;32;39917;-78
2022/07/03 23:45:27;;;;;;;6.35;3.28;;;;;;;24.47;44.28;99783.50;7658344;32;37971;-77
2022/07/03 23:54:18;;;;;;;5.68;2.58;;;;;;;24.27;44.75;99780.72;7684657;32;39422;-78
2022/07/03 23:58:34;;;;;;;6.20;3.40;;;;;;;24.34;44.71;99772.50;7684520;32;40242;-78
